Time;durP1;ratioP1;P1;durP2;ratioP2;P2;SDS_P1;SDS_P2;PMS_P1;PMS_P2;Temp;Humidity;BMP_temperature;BMP_pressure;BME280_temperature;BME280_humidity;BME280_pressure;Samples;Min_cycle;Max_cycle;Signal;HPM_P1;HPM_P2
2021/11/03 00:01:37;;;;;;;1.52;0.93;;;12.70;99.90;;;;;;5053941;28;20115;-82
2021/11/03 00:04:04;;;;;;;1.85;0.80;;;12.90;99.90;;;;;;5051218;28;20067;-82
2021/11/03 00:06:30;;;;;;;1.33;0.60;;;13.20;99.90;;;;;;5056894;28;20052;-82
2021/11/03 00:08:58;;;;;;;2.95;1.05;;;12.90;99.90;;;;;;5055206;28;20040;-82
2021/11/03 00:11:25;;;;;;;1.80;0.82;;;13.30;99.90;;;;;;5055039;28;20086;-82
2021/11/03 00:13:51;;;;;;;0.90;0.63;;;13.10;99.90;;;;;;5054695;28;20033;-82
2021/11/03 00:16:17;;;;;;;1.33;0.70;;;12.80;99.90;;;;;;5052323;28;20521;-82
2021/11/03 00:18:42;;;;;;;1.67;0.90;;;12.70;99.90;;;;;;5053488;28;20029;-82
2021/11/03 00:21:08;;;;;;;1.33;0.65;;;12.90;99.90;;;;;;5056625;28;20056;-82
2021/11/03 00:23:34;;;;;;;4.53;0.80;;;13.30;99.90;;;;;;5054669;28;20061;-82
2021/11/03 00:26:01;;;;;;;1.63;0.65;;;12.80;99.90;;;;;;5054944;28;20049;-82
2021/11/03 00:28:27;;;;;;;0.73;0.70;;;12.90;99.90;;;;;;5053576;28;20454;-82
2021/11/03 00:30:55;;;;;;;1.13;0.80;;;13.10;99.90;;;;;;5051962;28;20029;-82
2021/11/03 00:33:25;;;;;;;1.15;0.70;;;12.90;99.90;;;;;;5056264;28;20423;-82
2021/11/03 00:35:51;;;;;;;1.30;0.70;;;12.90;99.90;;;;;;5054570;28;20067;-82
2021/11/03 00:38:18;;;;;;;3.40;0.95;;;13.30;99.90;;;;;;5052766;28;20036;-82
2021/11/03 00:40:44;;;;;;;2.33;0.80;;;12.90;99.90;;;;;;5052860;28;20546;-82
2021/11/03 00:43:10;;;;;;;11.30;5.53;;;12.90;99.90;;;;;;5050847;28;20041;-82
2021/11/03 00:45:36;;;;;;;4.45;2.90;;;12.90;99.90;;;;;;5054903;28;20033;-82
2021/11/03 00:48:02;;;;;;;1.45;1.00;;;12.90;99.90;;;;;;5053606;28;20452;-82
2021/11/03 00:50:27;;;;;;;2.38;1.35;;;13.00;99.90;;;;;;5054218;28;20029;-82
2021/11/03 00:52:53;;;;;;;2.08;1.17;;;13.00;99.90;;;;;;5054019;28;20090;-82
2021/11/03 00:55:20;;;;;;;2.97;1.45;;;13.00;99.90;;;;;;5052205;28;20032;-82
2021/11/03 00:57:45;;;;;;;1.20;0.70;;;13.50;99.90;;;;;;5052333;28;20617;-82
2021/11/03 01:00:15;;;;;;;1.63;0.88;;;13.00;99.90;;;;;;5056012;28;20074;-82
2021/11/03 01:02:41;;;;;;;2.28;0.90;;;13.00;99.90;;;;;;5054338;28;20049;-82
2021/11/03 01:05:11;;;;;;;0.73;0.65;;;13.00;99.90;;;;;;5053949;28;20037;-82
2021/11/03 01:07:37;;;;;;;1.25;0.70;;;13.30;99.90;;;;;;5053877;28;20020;-82
2021/11/03 01:10:05;;;;;;;0.95;0.80;;;13.50;99.90;;;;;;5049766;28;20489;-82
2021/11/03 01:12:30;;;;;;;1.98;0.77;;;13.00;99.90;;;;;;5063232;28;20431;-82
2021/11/03 01:14:56;;;;;;;1.52;0.80;;;13.00;99.90;;;;;;5054129;28;20029;-82
2021/11/03 01:17:22;;;;;;;1.02;0.70;;;13.10;99.90;;;;;;5052799;28;20029;-82
2021/11/03 01:19:48;;;;;;;2.75;0.98;;;13.00;99.90;;;;;;5052517;28;20055;-82
2021/11/03 01:22:13;;;;;;;2.00;0.73;;;13.00;99.90;;;;;;5050636;28;20119;-82
2021/11/03 01:24:39;;;;;;;4.60;2.80;;;13.70;99.90;;;;;;5053823;28;20136;-82
2021/11/03 01:27:05;;;;;;;2.10;1.70;;;13.00;99.90;;;;;;5054599;28;20060;-82
2021/11/03 01:29:30;;;;;;;2.35;1.10;;;13.10;99.90;;;;;;5053891;28;20030;-82
2021/11/03 01:31:56;;;;;;;1.83;1.10;;;13.00;99.90;;;;;;5053727;28;20075;-82
2021/11/03 01:34:21;;;;;;;3.53;0.80;;;13.00;99.90;;;;;;5051952;28;20017;-81
2021/11/03 01:36:47;;;;;;;3.00;0.90;;;13.00;99.90;;;;;;5051657;28;20104;-82
2021/11/03 01:39:12;;;;;;;1.10;0.88;;;13.00;99.90;;;;;;5056213;28;20120;-82
2021/11/03 01:41:39;;;;;;;1.95;0.88;;;13.30;99.90;;;;;;5053566;28;20040;-82
2021/11/03 01:44:04;;;;;;;1.77;0.70;;;12.90;99.90;;;;;;5053717;28;20028;-82
2021/11/03 01:46:35;;;;;;;2.22;0.95;;;12.90;99.90;;;;;;5053488;28;20044;-82
2021/11/03 01:49:12;;;;;;;1.90;0.77;;;12.80;99.90;;;;;;5053718;28;20030;-82
2021/11/03 01:52:01;;;;;;;1.70;0.80;;;12.80;99.90;;;;;;5067659;28;20107;-82
2021/11/03 01:54:45;;;;;;;1.88;0.85;;;12.70;99.90;;;;;;5059632;28;20025;-82
2021/11/03 01:57:15;;;;;;;4.80;1.60;;;12.70;99.90;;;;;;5059040;28;20025;-82
2021/11/03 01:59:44;;;;;;;1.92;0.80;;;12.80;99.90;;;;;;5055952;28;20043;-82
2021/11/03 02:02:13;;;;;;;2.97;1.20;;;12.60;99.90;;;;;;5057449;28;20056;-82
2021/11/03 02:04:39;;;;;;;3.38;1.00;;;12.60;99.90;;;;;;5057185;28;20033;-82
2021/11/03 02:07:10;;;;;;;3.67;0.90;;;12.60;99.90;;;;;;5052925;28;20037;-82
2021/11/03 02:09:36;;;;;;;1.60;0.80;;;12.60;99.90;;;;;;5056607;28;20381;-82
2021/11/03 02:12:02;;;;;;;1.55;1.00;;;12.90;99.90;;;;;;5056370;28;20062;-82
2021/11/03 02:14:28;;;;;;;2.10;0.90;;;12.70;99.90;;;;;;5057089;28;20037;-82
2021/11/03 02:16:54;;;;;;;2.35;0.82;;;12.60;99.90;;;;;;5057101;28;20039;-82
2021/11/03 02:19:27;;;;;;;1.88;1.10;;;13.10;99.90;;;;;;5054603;28;20059;-82
2021/11/03 02:22:16;;;;;;;1.63;0.80;;;12.70;99.90;;;;;;5053968;28;20238;-82
2021/11/03 02:25:06;;;;;;;1.77;0.80;;;12.60;99.90;;;;;;5067084;28;20575;-82
2021/11/03 02:27:33;;;;;;;2.50;0.90;;;12.50;99.90;;;;;;5066148;28;20064;-82
2021/11/03 02:29:59;;;;;;;5.38;1.30;;;12.40;99.90;;;;;;5055521;28;20031;-82
2021/11/03 02:32:29;;;;;;;3.15;1.20;;;12.40;99.90;;;;;;5057210;28;20036;-81
2021/11/03 02:34:55;;;;;;;2.47;1.00;;;12.90;99.90;;;;;;5056056;28;20020;-82
2021/11/03 02:37:29;;;;;;;0.80;0.60;;;12.50;99.90;;;;;;5053087;28;20083;-82
2021/11/03 02:40:01;;;;;;;0.60;0.60;;;12.40;99.90;;;;;;5053335;28;20112;-82
2021/11/03 02:42:30;;;;;;;1.88;0.75;;;11.70;99.90;;;;;;5059047;28;20045;-83
2021/11/03 02:44:59;;;;;;;1.60;0.55;;;11.70;99.90;;;;;;5056510;28;20079;-82
2021/11/03 02:47:25;;;;;;;0.95;0.70;;;11.70;99.90;;;;;;5055994;28;20040;-82
2021/11/03 02:49:51;;;;;;;2.97;0.90;;;11.60;99.90;;;;;;5056630;28;20032;-82
2021/11/03 02:52:23;;;;;;;2.70;0.80;;;11.60;99.90;;;;;;5053559;28;20112;-81
2021/11/03 02:54:49;;;;;;;1.38;0.68;;;11.60;99.90;;;;;;5054011;28;20455;-82
2021/11/03 02:57:16;;;;;;;0.55;0.40;;;11.50;99.90;;;;;;5057557;28;20474;-82
2021/11/03 02:59:42;;;;;;;1.48;0.50;;;11.20;99.90;;;;;;5056385;28;20032;-82
2021/11/03 03:02:09;;;;;;;0.98;0.40;;;11.10;99.90;;;;;;5056623;28;20029;-82
2021/11/03 03:04:46;;;;;;;1.15;0.40;;;11.10;99.90;;;;;;5056109;28;20017;-82
2021/11/03 03:07:14;;;;;;;0.32;0.30;;;11.30;99.90;;;;;;5038261;28;20032;-82
2021/11/03 03:09:40;;;;;;;0.82;0.38;;;11.00;99.90;;;;;;5056275;28;20029;-82
2021/11/03 03:12:08;;;;;;;0.57;0.30;;;10.90;99.90;;;;;;5056851;28;20036;-82
2021/11/03 03:14:37;;;;;;;0.40;0.40;;;10.90;99.90;;;;;;5054633;28;20028;-81
2021/11/03 03:17:10;;;;;;;0.98;0.30;;;11.20;99.90;;;;;;5054333;28;20401;-82
2021/11/03 03:19:36;;;;;;;1.02;0.40;;;10.80;99.90;;;;;;5056182;28;20149;-82
2021/11/03 03:22:01;;;;;;;1.15;0.43;;;10.90;99.90;;;;;;5051985;28;20533;-82
2021/11/03 03:24:27;;;;;;;0.73;0.28;;;11.00;99.90;;;;;;5057594;28;20064;-82
2021/11/03 03:26:53;;;;;;;0.88;0.38;;;10.90;99.90;;;;;;5055714;28;20116;-82
2021/11/03 03:29:19;;;;;;;0.75;0.40;;;10.90;99.90;;;;;;5055979;28;20025;-82
2021/11/03 03:31:46;;;;;;;0.25;0.25;;;10.70;99.90;;;;;;5055609;28;20028;-81
2021/11/03 03:34:15;;;;;;;0.43;0.30;;;11.30;99.90;;;;;;5052523;28;20083;-82
2021/11/03 03:36:42;;;;;;;0.40;0.40;;;10.90;99.90;;;;;;5055399;28;20060;-82
2021/11/03 03:39:10;;;;;;;1.30;0.20;;;10.80;99.90;;;;;;5056551;28;20432;-82
2021/11/03 03:41:36;;;;;;;2.03;0.20;;;11.00;99.90;;;;;;5055079;28;20513;-82
2021/11/03 03:44:03;;;;;;;1.35;0.40;;;11.00;99.90;;;;;;5055705;28;20036;-82
2021/11/03 03:46:29;;;;;;;0.88;0.35;;;10.90;99.90;;;;;;5054211;28;20028;-82
2021/11/03 03:48:55;;;;;;;1.45;0.50;;;10.90;99.90;;;;;;5052707;28;20033;-82
2021/11/03 03:51:21;;;;;;;1.27;0.30;;;11.00;99.90;;;;;;5057183;28;20119;-82
2021/11/03 03:53:48;;;;;;;1.45;0.50;;;11.00;99.90;;;;;;5053947;28;20436;-82
2021/11/03 03:56:15;;;;;;;0.38;0.38;;;11.10;99.90;;;;;;5053436;28;20025;-82
2021/11/03 03:58:42;;;;;;;0.52;0.20;;;11.60;99.90;;;;;;5055549;28;20037;-82
2021/11/03 04:01:09;;;;;;;0.20;0.20;;;11.20;99.90;;;;;;5051139;28;20029;-83
2021/11/03 04:03:35;;;;;;;0.20;0.20;;;11.00;99.90;;;;;;5056624;28;20036;-82
2021/11/03 04:06:00;;;;;;;0.45;0.30;;;10.90;99.90;;;;;;5055028;28;20037;-82
2021/11/03 04:08:27;;;;;;;0.30;0.30;;;11.30;99.90;;;;;;5055277;28;20484;-82
2021/11/03 04:10:53;;;;;;;0.20;0.20;;;11.10;99.90;;;;;;5054699;28;20499;-82
2021/11/03 04:13:20;;;;;;;0.17;0.17;;;11.00;99.90;;;;;;5052804;28;20028;-82
2021/11/03 04:15:47;;;;;;;1.33;0.60;;;11.10;99.90;;;;;;5053235;28;20028;-82
2021/11/03 04:18:12;;;;;;;0.50;0.40;;;11.20;99.90;;;;;;5056779;28;20478;-82
2021/11/03 04:20:38;;;;;;;2.58;0.45;;;11.70;99.90;;;;;;5054692;28;20025;-82
2021/11/03 04:23:04;;;;;;;0.57;0.45;;;11.20;99.90;;;;;;5054779;28;20029;-82
2021/11/03 04:25:31;;;;;;;0.52;0.40;;;11.60;99.90;;;;;;5053949;28;20052;-82
2021/11/03 04:27:58;;;;;;;0.68;0.35;;;11.70;99.90;;;;;;5051125;28;20112;-82
2021/11/03 04:30:24;;;;;;;0.45;0.28;;;11.20;99.90;;;;;;5056619;28;20031;-82
2021/11/03 04:32:50;;;;;;;1.58;0.40;;;11.20;99.90;;;;;;5053000;28;20040;-81
2021/11/03 04:35:16;;;;;;;1.27;0.30;;;11.30;99.90;;;;;;5053408;28;20094;-82
2021/11/03 04:37:42;;;;;;;0.30;0.30;;;11.30;99.90;;;;;;5052989;28;20021;-82
2021/11/03 04:40:11;;;;;;;0.75;0.55;;;11.90;99.90;;;;;;5049963;28;20025;-82
2021/11/03 04:42:37;;;;;;;1.35;0.40;;;11.20;99.90;;;;;;5054960;28;20063;-82
2021/11/03 04:45:05;;;;;;;0.70;0.40;;;10.90;99.90;;;;;;5055514;28;20053;-82
2021/11/03 04:47:30;;;;;;;1.48;0.50;;;11.00;99.90;;;;;;5054181;28;20064;-82
2021/11/03 04:49:57;;;;;;;0.60;0.35;;;11.40;99.90;;;;;;5054350;28;20063;-82
2021/11/03 04:52:23;;;;;;;2.20;0.60;;;11.10;99.90;;;;;;5052677;28;20025;-82
2021/11/03 04:54:49;;;;;;;1.95;0.40;;;10.90;99.90;;;;;;5051858;28;20039;-82
2021/11/03 04:57:17;;;;;;;1.23;0.40;;;10.80;99.90;;;;;;5052771;28;20025;-82
2021/11/03 04:59:45;;;;;;;2.42;0.40;;;10.90;99.90;;;;;;5053711;28;20112;-82
2021/11/03 05:02:11;;;;;;;2.17;0.50;;;10.90;99.90;;;;;;5054648;28;20025;-82
2021/11/03 05:04:37;;;;;;;1.98;0.50;;;11.50;99.90;;;;;;5053976;28;20020;-82
2021/11/03 05:07:03;;;;;;;0.57;0.38;;;11.20;99.90;;;;;;5033989;28;20036;-82
2021/11/03 05:09:28;;;;;;;0.45;0.35;;;10.80;99.90;;;;;;5055729;28;20441;-82
2021/11/03 05:11:54;;;;;;;0.50;0.30;;;10.80;99.90;;;;;;5052786;28;20112;-82
2021/11/03 05:14:20;;;;;;;1.95;0.40;;;10.70;99.90;;;;;;5052602;28;20037;-82
2021/11/03 05:16:48;;;;;;;3.10;0.60;;;10.90;99.90;;;;;;5053911;28;20373;-82
2021/11/03 05:19:26;;;;;;;0.93;0.50;;;10.70;99.90;;;;;;5050940;28;20051;-82
2021/11/03 05:21:53;;;;;;;0.93;0.40;;;10.50;99.90;;;;;;5050647;28;20036;-82
2021/11/03 05:24:19;;;;;;;2.25;0.57;;;10.40;99.90;;;;;;5055774;28;20534;-82
2021/11/03 05:26:45;;;;;;;0.95;0.68;;;10.40;99.90;;;;;;5053578;28;20043;-82
2021/11/03 05:29:12;;;;;;;3.80;0.70;;;10.50;99.90;;;;;;5053857;28;20496;-82
2021/11/03 05:31:37;;;;;;;0.65;0.47;;;10.30;99.90;;;;;;5053734;28;20021;-82
2021/11/03 05:34:03;;;;;;;1.20;0.55;;;10.60;99.90;;;;;;5049634;28;20021;-82
2021/11/03 05:36:30;;;;;;;1.05;0.75;;;10.20;99.90;;;;;;5055390;28;20025;-82
2021/11/03 05:38:59;;;;;;;1.10;0.70;;;10.60;99.90;;;;;;5053905;28;20040;-82
2021/11/03 05:41:25;;;;;;;1.33;0.90;;;10.30;99.90;;;;;;5054021;28;20044;-82
2021/11/03 05:43:51;;;;;;;0.98;0.60;;;10.70;99.90;;;;;;5053539;28;20037;-82
2021/11/03 05:46:38;;;;;;;1.25;0.60;;;10.10;99.90;;;;;;5051030;28;20045;-82
2021/11/03 05:49:06;;;;;;;0.77;0.60;;;10.70;99.90;;;;;;5031067;28;20025;-82
2021/11/03 05:51:33;;;;;;;1.40;0.60;;;10.20;99.90;;;;;;5062153;28;20477;-82
2021/11/03 05:53:58;;;;;;;0.77;0.50;;;10.80;99.90;;;;;;5052569;28;20021;-82
2021/11/03 05:56:24;;;;;;;2.70;0.60;;;10.70;99.90;;;;;;5053318;28;20044;-82
2021/11/03 05:58:51;;;;;;;2.40;0.60;;;10.70;99.90;;;;;;5053459;28;20028;-82
2021/11/03 06:01:16;;;;;;;1.25;0.70;;;10.50;99.90;;;;;;5050970;28;20033;-82
2021/11/03 06:03:42;;;;;;;1.75;0.60;;;10.20;99.90;;;;;;5053369;28;20028;-81
2021/11/03 06:06:10;;;;;;;0.68;0.50;;;10.20;99.90;;;;;;5054081;28;20037;-81
2021/11/03 06:08:35;;;;;;;0.70;0.40;;;10.10;99.90;;;;;;5053330;28;20052;-81
2021/11/03 06:11:02;;;;;;;0.40;0.40;;;10.00;99.90;;;;;;5052880;28;20037;-82
2021/11/03 06:13:28;;;;;;;0.43;0.40;;;10.00;99.90;;;;;;5052277;28;20024;-82
2021/11/03 06:15:54;;;;;;;1.20;0.55;;;9.90;99.90;;;;;;5049799;28;20456;-82
2021/11/03 06:18:19;;;;;;;0.52;0.43;;;10.10;99.90;;;;;;5054861;28;20014;-81
2021/11/03 06:20:45;;;;;;;2.05;0.60;;;10.30;99.90;;;;;;5052767;28;20037;-80
2021/11/03 06:23:11;;;;;;;1.75;0.70;;;10.50;99.90;;;;;;5053273;28;20025;-80
2021/11/03 06:25:36;;;;;;;1.50;0.68;;;10.10;99.90;;;;;;5053087;28;20055;-80
2021/11/03 06:28:03;;;;;;;1.20;0.55;;;10.10;99.90;;;;;;5048480;28;20108;-82
2021/11/03 06:30:32;;;;;;;1.65;0.50;;;10.10;99.90;;;;;;5054764;28;20542;-81
2021/11/03 06:32:59;;;;;;;0.70;0.50;;;10.30;99.90;;;;;;5053090;28;20147;-81
2021/11/03 06:35:25;;;;;;;0.50;0.50;;;10.00;99.90;;;;;;5056397;28;20029;-81
2021/11/03 06:37:51;;;;;;;1.23;0.50;;;10.00;99.90;;;;;;5057876;28;20104;-81
2021/11/03 06:40:19;;;;;;;0.57;0.50;;;10.10;99.90;;;;;;5053713;28;20518;-82
2021/11/03 06:42:45;;;;;;;0.40;0.40;;;9.90;99.90;;;;;;5055444;28;20104;-82
2021/11/03 06:45:13;;;;;;;0.90;0.75;;;9.90;99.90;;;;;;5057801;28;20191;-82
2021/11/03 06:47:38;;;;;;;0.93;0.60;;;9.90;99.90;;;;;;5056776;28;20403;-82
2021/11/03 06:50:06;;;;;;;1.50;0.60;;;10.30;99.90;;;;;;5056562;28;20029;-82
2021/11/03 06:52:32;;;;;;;0.73;0.52;;;9.90;99.90;;;;;;5055540;28;20028;-82
2021/11/03 06:54:58;;;;;;;1.38;0.50;;;9.90;99.90;;;;;;5052613;28;20691;-81
2021/11/03 06:57:23;;;;;;;1.45;0.73;;;9.90;99.90;;;;;;5058320;28;20025;-82
2021/11/03 06:59:50;;;;;;;1.30;0.80;;;10.30;99.90;;;;;;5056065;28;20033;-83
2021/11/03 07:02:17;;;;;;;1.08;0.57;;;9.90;99.90;;;;;;5056501;28;20029;-80
2021/11/03 07:04:43;;;;;;;1.15;0.57;;;9.90;99.90;;;;;;5055814;28;20035;-83
2021/11/03 07:07:09;;;;;;;1.45;0.68;;;9.90;99.90;;;;;;5050803;28;20029;-83
2021/11/03 07:09:35;;;;;;;0.70;0.70;;;9.90;99.90;;;;;;5057309;28;20021;-83
2021/11/03 07:12:01;;;;;;;1.80;0.70;;;10.00;99.90;;;;;;5054999;28;20028;-82
2021/11/03 07:14:26;;;;;;;0.98;0.63;;;9.80;99.90;;;;;;5055895;28;20137;-82
2021/11/03 07:16:52;;;;;;;0.43;0.43;;;10.10;99.90;;;;;;5056230;28;20025;-82
2021/11/03 07:19:18;;;;;;;2.75;0.80;;;9.80;99.90;;;;;;5053019;28;20033;-82
2021/11/03 07:21:44;;;;;;;1.40;0.60;;;9.80;99.90;;;;;;5055027;28;20121;-83
2021/11/03 07:24:14;;;;;;;1.80;0.80;;;10.40;99.90;;;;;;5057183;28;20024;-83
2021/11/03 07:26:42;;;;;;;1.80;1.38;;;10.30;99.90;;;;;;5056050;28;20112;-83
2021/11/03 07:29:08;;;;;;;1.42;0.70;;;9.80;99.90;;;;;;5056447;28;20009;-83
2021/11/03 07:31:34;;;;;;;0.85;0.65;;;10.30;99.90;;;;;;5054351;28;20071;-83
2021/11/03 07:34:00;;;;;;;2.28;0.60;;;10.40;99.90;;;;;;5051566;28;20484;-83
2021/11/03 07:36:26;;;;;;;0.60;0.50;;;10.00;99.90;;;;;;5057564;28;20037;-83
2021/11/03 07:38:51;;;;;;;0.50;0.50;;;10.30;99.90;;;;;;5055395;28;20025;-82
2021/11/03 07:41:17;;;;;;;0.80;0.60;;;10.10;99.90;;;;;;5056048;28;20032;-83
2021/11/03 07:43:44;;;;;;;2.90;0.98;;;10.10;99.90;;;;;;5055801;28;20031;-83
2021/11/03 07:46:10;;;;;;;0.75;0.60;;;10.20;99.90;;;;;;5050227;28;20053;-83
2021/11/03 07:48:36;;;;;;;0.50;0.50;;;10.50;99.90;;;;;;5056097;28;20389;-82
2021/11/03 07:51:10;;;;;;;0.50;0.43;;;10.50;99.90;;;;;;5055930;28;20071;-83
2021/11/03 07:53:36;;;;;;;1.95;0.60;;;10.20;99.90;;;;;;5055136;28;20108;-83
2021/11/03 07:56:06;;;;;;;1.02;0.60;;;10.60;99.90;;;;;;5055983;28;20148;-83
2021/11/03 07:58:36;;;;;;;0.80;0.70;;;10.30;99.90;;;;;;5051658;28;20451;-83
2021/11/03 08:01:03;;;;;;;0.80;0.47;;;10.30;99.90;;;;;;5050992;28;20025;-83
2021/11/03 08:03:29;;;;;;;0.50;0.50;;;10.40;99.90;;;;;;5057253;28;20082;-83
2021/11/03 08:05:55;;;;;;;0.88;0.50;;;10.40;99.90;;;;;;5054985;28;20041;-83
2021/11/03 08:08:24;;;;;;;0.80;0.57;;;10.90;99.90;;;;;;5054747;28;20037;-83
2021/11/03 08:10:52;;;;;;;0.60;0.60;;;10.50;99.90;;;;;;5055056;28;20055;-83
2021/11/03 08:13:17;;;;;;;0.82;0.60;;;11.20;99.90;;;;;;5051018;28;20032;-83
2021/11/03 08:15:48;;;;;;;1.13;0.60;;;11.10;99.90;;;;;;5054642;28;20029;-83
2021/11/03 08:18:16;;;;;;;0.52;0.52;;;10.50;99.90;;;;;;5056171;28;20039;-84
2021/11/03 08:20:42;;;;;;;0.95;0.60;;;10.50;99.90;;;;;;5054466;28;20127;-83
2021/11/03 08:23:09;;;;;;;1.23;0.70;;;10.60;99.90;;;;;;5054655;28;20032;-84
2021/11/03 08:25:35;;;;;;;3.80;0.93;;;11.00;99.90;;;;;;5052882;28;20536;-84
2021/11/03 08:28:01;;;;;;;1.60;1.40;;;11.20;99.90;;;;;;5050271;28;20108;-84
2021/11/03 08:30:27;;;;;;;1.45;1.10;;;11.10;99.90;;;;;;5055758;28;20150;-85
2021/11/03 08:33:01;;;;;;;1.67;1.52;;;10.80;99.90;;;;;;5050310;28;20029;-84
2021/11/03 08:35:28;;;;;;;3.13;1.80;;;10.80;99.90;;;;;;5054747;28;20036;-84
2021/11/03 08:38:00;;;;;;;1.83;1.40;;;11.10;99.90;;;;;;5054685;28;20024;-85
2021/11/03 08:40:26;;;;;;;1.52;1.35;;;10.90;99.90;;;;;;5052540;28;20595;-85
2021/11/03 08:42:52;;;;;;;0.88;0.80;;;11.00;99.90;;;;;;5051838;28;20028;-85
2021/11/03 08:45:18;;;;;;;1.45;0.75;;;10.90;99.90;;;;;;5056422;28;20078;-85
2021/11/03 08:47:44;;;;;;;0.88;0.70;;;10.90;99.90;;;;;;5054110;28;20029;-86
2021/11/03 08:50:16;;;;;;;1.50;0.77;;;11.10;99.90;;;;;;5054611;28;20025;-84
2021/11/03 08:52:43;;;;;;;1.77;0.70;;;11.10;99.90;;;;;;5054292;28;20415;-85
2021/11/03 08:55:09;;;;;;;1.02;0.75;;;11.70;99.90;;;;;;5049668;28;20108;-83
2021/11/03 08:57:35;;;;;;;2.05;0.70;;;11.50;99.90;;;;;;5056042;28;20116;-82
2021/11/03 09:00:07;;;;;;;0.88;0.80;;;11.30;99.90;;;;;;5052860;28;20460;-82
2021/11/03 09:02:32;;;;;;;1.35;1.10;;;11.40;99.90;;;;;;5050732;28;20143;-83
2021/11/03 09:04:58;;;;;;;2.40;1.30;;;12.00;99.90;;;;;;5052087;28;20163;-83
2021/11/03 09:07:24;;;;;;;1.10;0.95;;;11.90;99.90;;;;;;5050792;28;20041;-83
2021/11/03 09:09:50;;;;;;;2.20;0.80;;;11.70;99.90;;;;;;5051501;28;20032;-83
2021/11/03 09:12:17;;;;;;;1.48;0.82;;;11.80;99.90;;;;;;5055855;28;20416;-82
2021/11/03 09:14:42;;;;;;;1.17;1.02;;;12.30;99.90;;;;;;5054047;28;20025;-83
2021/11/03 09:17:09;;;;;;;2.03;1.50;;;12.40;99.90;;;;;;5053648;28;20021;-83
2021/11/03 09:19:36;;;;;;;3.10;2.70;;;12.30;99.90;;;;;;5053820;28;20402;-83
2021/11/03 09:22:02;;;;;;;1.90;1.70;;;12.40;99.90;;;;;;5049727;28;20506;-84
2021/11/03 09:24:28;;;;;;;2.33;1.67;;;13.10;99.90;;;;;;5056159;28;20040;-83
2021/11/03 09:26:53;;;;;;;1.10;0.90;;;13.30;99.90;;;;;;5053695;28;20040;-82
2021/11/03 09:29:19;;;;;;;0.98;0.82;;;13.10;99.90;;;;;;5053550;28;20021;-85
2021/11/03 09:31:45;;;;;;;1.88;1.05;;;13.60;99.90;;;;;;5053774;28;20029;-85
2021/11/03 09:34:13;;;;;;;0.55;0.55;;;14.10;99.90;;;;;;5048603;28;20588;-85
2021/11/03 09:36:42;;;;;;;0.80;0.75;;;14.40;99.90;;;;;;5054533;28;20025;-85
2021/11/03 09:39:08;;;;;;;0.88;0.80;;;14.20;99.90;;;;;;5086304;28;20045;-85
2021/11/03 09:41:47;;;;;;;1.00;0.80;;;13.60;99.90;;;;;;5053807;28;20029;-84
2021/11/03 09:44:18;;;;;;;0.60;0.60;;;13.40;99.90;;;;;;5051957;28;20078;-84
2021/11/03 09:47:07;;;;;;;0.90;0.77;;;14.10;99.90;;;;;;5051782;28;20169;-84
2021/11/03 09:49:42;;;;;;;1.20;0.88;;;14.20;99.90;;;;;;5052334;28;20043;-84
2021/11/03 09:52:11;;;;;;;1.33;0.90;;;14.80;99.90;;;;;;5034173;28;20056;-85
2021/11/03 09:54:38;;;;;;;3.10;0.88;;;14.70;99.90;;;;;;5055421;28;20018;-85
2021/11/03 09:57:18;;;;;;;2.50;1.08;;;14.60;99.90;;;;;;5054189;28;20028;-85
2021/11/03 10:00:13;;;;;;;1.15;0.80;;;14.80;99.90;;;;;;5053163;28;20029;-86
2021/11/03 10:02:44;;;;;;;1.15;0.93;;;15.30;99.90;;;;;;5053347;28;20095;-84
2021/11/03 10:05:16;;;;;;;1.38;1.10;;;21.60;99.90;;;;;;5053303;28;20064;-85
2021/11/03 10:07:54;;;;;;;1.42;1.00;;;27.10;99.90;;;;;;5054459;28;20120;-85
2021/11/03 10:10:33;;;;;;;1.10;1.00;;;29.90;99.90;;;;;;5054930;28;20044;-86
2021/11/03 10:13:15;;;;;;;1.65;0.80;;;30.90;99.90;;;;;;5052750;28;20363;-85
2021/11/03 10:16:01;;;;;;;1.20;1.05;;;27.80;99.90;;;;;;5067165;28;20111;-85
2021/11/03 10:18:30;;;;;;;0.70;0.70;;;26.80;99.90;;;;;;5059105;28;20066;-85
2021/11/03 10:21:17;;;;;;;1.27;0.95;;;25.50;99.90;;;;;;5057010;28;20112;-84
2021/11/03 10:23:58;;;;;;;1.02;0.80;;;26.00;99.90;;;;;;5055623;28;20067;-85
2021/11/03 10:26:27;;;;;;;0.70;0.70;;;24.60;99.90;;;;;;5055010;28;20056;-84
2021/11/03 10:29:15;;;;;;;1.08;0.88;;;24.20;99.90;;;;;;5057064;28;20074;-84
2021/11/03 10:32:16;;;;;;;1.08;0.90;;;22.10;99.90;;;;;;5057683;28;20056;-84
2021/11/03 10:34:49;;;;;;;1.60;0.80;;;19.40;99.90;;;;;;5054194;28;20044;-85
2021/11/03 10:37:24;;;;;;;3.70;1.05;;;18.50;99.90;;;;;;5053960;28;20023;-85
2021/11/03 10:40:21;;;;;;;1.00;0.90;;;17.90;99.90;;;;;;5054698;28;20025;-85
2021/11/03 10:42:54;;;;;;;1.02;0.90;;;18.10;99.90;;;;;;5066870;28;20028;-85
2021/11/03 10:45:36;;;;;;;1.60;1.05;;;18.10;99.90;;;;;;5057285;28;20033;-86
2021/11/03 10:48:20;;;;;;;2.75;1.20;;;18.40;99.90;;;;;;5055147;28;20036;-86
2021/11/03 10:50:55;;;;;;;2.20;0.80;;;21.40;99.90;;;;;;5052225;28;20520;-85
2021/11/03 10:53:31;;;;;;;0.98;0.88;;;23.20;99.90;;;;;;5056408;28;20090;-85
2021/11/03 10:56:04;;;;;;;1.52;0.80;;;27.20;99.90;;;;;;5055951;28;20020;-82
2021/11/03 10:58:35;;;;;;;1.63;1.02;;;25.40;99.90;;;;;;5055425;28;20115;-83
2021/11/03 11:01:12;;;;;;;1.98;1.33;;;29.50;99.90;;;;;;5051606;28;20021;-82
2021/11/03 11:03:45;;;;;;;0.90;0.80;;;30.80;99.90;;;;;;5065913;28;20393;-82
2021/11/03 11:06:21;;;;;;;1.52;0.93;;;29.40;99.90;;;;;;5056294;28;20033;-82
2021/11/03 11:09:03;;;;;;;2.30;0.73;;;23.90;99.90;;;;;;5056648;28;20429;-84
2021/11/03 11:11:31;;;;;;;1.02;0.60;;;22.10;99.90;;;;;;5055640;28;20033;-86
2021/11/03 11:14:04;;;;;;;0.98;0.63;;;20.30;99.90;;;;;;5056305;28;20032;-85
2021/11/03 11:16:47;;;;;;;0.80;0.60;;;22.30;99.90;;;;;;5055503;28;20746;-82
2021/11/03 11:19:48;;;;;;;0.85;0.45;;;19.50;99.90;;;;;;5037692;28;20055;-86
2021/11/03 11:22:41;;;;;;;0.70;0.50;;;18.20;99.90;;;;;;5017536;28;20495;-84
2021/11/03 11:25:34;;;;;;;0.40;0.40;;;17.40;99.90;;;;;;5030259;28;20147;-81
2021/11/03 11:28:24;;;;;;;3.35;0.60;;;17.20;99.90;;;;;;5031338;28;20535;-82
2021/11/03 11:31:04;;;;;;;0.88;0.70;;;16.90;99.90;;;;;;5045072;28;20029;-82
2021/11/03 11:33:34;;;;;;;1.30;0.50;;;16.90;99.90;;;;;;5035244;28;20493;-83
2021/11/03 11:36:15;;;;;;;0.77;0.47;;;16.80;99.90;;;;;;5035722;28;20109;-82
2021/11/03 11:38:44;;;;;;;2.97;0.50;;;16.80;99.90;;;;;;5034910;28;20087;-82
2021/11/03 11:41:35;;;;;;;1.20;0.70;;;18.00;99.90;;;;;;5034363;28;20092;-82
2021/11/03 11:44:12;;;;;;;0.60;0.60;;;17.90;99.90;;;;;;5035075;28;20120;-82
2021/11/03 11:46:38;;;;;;;0.63;0.50;;;17.50;99.90;;;;;;5034539;28;20036;-85
2021/11/03 11:49:14;;;;;;;1.80;1.00;;;16.30;99.90;;;;;;5030471;28;20034;-82
2021/11/03 11:51:45;;;;;;;0.90;0.70;;;16.30;99.90;;;;;;5043318;28;20033;-83
2021/11/03 11:54:37;;;;;;;1.52;0.70;;;15.40;99.90;;;;;;5033720;28;20033;-83
2021/11/03 11:57:11;;;;;;;2.47;0.90;;;14.90;99.90;;;;;;5053485;28;20045;-82
2021/11/03 11:59:56;;;;;;;0.60;0.50;;;14.90;99.90;;;;;;5055398;28;20068;-82
2021/11/03 12:02:23;;;;;;;9.80;1.40;;;14.80;99.90;;;;;;5054242;28;20025;-82
2021/11/03 12:04:49;;;;;;;5.55;1.17;;;14.70;99.90;;;;;;5054967;28;20096;-82
2021/11/03 12:07:24;;;;;;;4.57;1.27;;;15.00;99.90;;;;;;5052136;28;20056;-83
2021/11/03 12:09:58;;;;;;;1.50;0.80;;;15.40;99.90;;;;;;5052702;28;20048;-82
2021/11/03 12:12:24;;;;;;;0.70;0.70;;;15.10;99.90;;;;;;5055879;28;20082;-83
2021/11/03 12:14:59;;;;;;;1.40;0.80;;;14.60;99.90;;;;;;5054824;28;20025;-82
2021/11/03 12:17:49;;;;;;;1.70;0.70;;;14.50;99.90;;;;;;5054656;28;20033;-82
2021/11/03 12:20:24;;;;;;;2.50;0.85;;;14.50;99.90;;;;;;5053517;28;20100;-82
2021/11/03 12:22:58;;;;;;;0.90;0.80;;;15.20;99.90;;;;;;5052972;28;20021;-82
2021/11/03 12:25:24;;;;;;;1.33;0.70;;;15.90;99.90;;;;;;5053233;28;20091;-82
2021/11/03 12:28:09;;;;;;;2.42;0.50;;;16.40;99.90;;;;;;5052275;28;20057;-82
2021/11/03 12:30:40;;;;;;;0.80;0.80;;;16.50;99.90;;;;;;5005634;28;20095;-83
2021/11/03 12:33:09;;;;;;;0.50;0.50;;;16.10;99.90;;;;;;5010320;28;20104;-82
2021/11/03 12:35:48;;;;;;;0.47;0.47;;;15.10;99.90;;;;;;5009633;28;20046;-82
2021/11/03 12:38:14;;;;;;;0.77;0.40;;;15.10;99.90;;;;;;5020802;28;20515;-82
2021/11/03 12:40:41;;;;;;;0.63;0.45;;;15.30;99.90;;;;;;4999738;28;20089;-82
2021/11/03 12:43:29;;;;;;;0.60;0.60;;;15.00;99.90;;;;;;5009894;28;20409;-82
2021/11/03 12:46:07;;;;;;;1.40;0.60;;;15.30;99.90;;;;;;5009742;28;20037;-82
2021/11/03 12:48:47;;;;;;;1.00;1.00;;;14.70;99.90;;;;;;5010721;28;20326;-82
2021/11/03 12:51:27;;;;;;;1.55;0.50;;;15.00;99.90;;;;;;5009846;28;20145;-82
2021/11/03 12:53:55;;;;;;;0.80;0.80;;;14.50;99.90;;;;;;5010054;28;20030;-82
2021/11/03 12:56:25;;;;;;;1.52;1.42;;;14.50;99.90;;;;;;5009012;28;20034;-82
2021/11/03 12:58:56;;;;;;;1.10;0.85;;;14.40;99.90;;;;;;5009230;28;20069;-82
2021/11/03 13:01:29;;;;;;;1.25;0.90;;;14.30;99.90;;;;;;5009274;28;20046;-82